createdAt,value
2022-10-07T03:03:19.039Z,56.95
2022-10-07T03:05:49.193Z,56.44
2022-10-07T03:08:15.782Z,56.46
2022-10-07T03:10:42.845Z,56.41
2022-10-07T03:13:09.584Z,56.29
2022-10-07T03:15:42.114Z,57.35
2022-10-07T03:18:26.266Z,56.73
2022-10-07T03:20:55.453Z,55.91
2022-10-07T03:23:25.690Z,56.01
2022-10-07T03:25:53.965Z,55.49
2022-10-07T03:28:22.543Z,55.28
2022-10-07T03:30:50.142Z,55.04
2022-10-07T03:33:18.253Z,55.16
2022-10-07T03:35:45.031Z,55.11
2022-10-07T03:38:12.252Z,55.57
2022-10-07T03:40:39.332Z,55.41
2022-10-07T03:43:07.552Z,56.48
2022-10-07T03:45:37.310Z,56.44
2022-10-07T03:48:05.027Z,56.00
2022-10-07T03:50:31.484Z,57.05
2022-10-07T03:52:57.941Z,57.47
2022-10-07T03:55:24.411Z,58.89
2022-10-07T03:57:53.362Z,57.86
2022-10-07T04:00:25.577Z,58.42
2022-10-07T04:02:52.791Z,59.01
2022-10-07T04:05:20.889Z,59.18
2022-10-07T04:07:49.243Z,59.53
2022-10-07T04:10:17.829Z,60.60
2022-10-07T04:12:45.015Z,60.16
2022-10-07T04:15:14.868Z,59.69
2022-10-07T04:17:41.769Z,60.48
2022-10-07T04:20:09.497Z,60.39
2022-10-07T04:22:36.636Z,59.42
2022-10-07T04:25:22.667Z,58.86
2022-10-07T04:27:56.755Z,59.18
2022-10-07T04:30:26.000Z,59.35
2022-10-07T04:32:52.636Z,59.54
2022-10-07T04:35:23.561Z,60.12
2022-10-07T04:37:51.392Z,60.25
2022-10-07T04:40:19.364Z,60.01
2022-10-07T04:43:05.791Z,60.46
2022-10-07T04:45:34.064Z,61.20
2022-10-07T04:48:01.719Z,61.21
2022-10-07T04:50:28.728Z,60.64
2022-10-07T04:52:55.177Z,61.11
2022-10-07T04:55:21.702Z,61.00
2022-10-07T04:57:49.579Z,60.59
2022-10-07T05:00:16.145Z,61.17
2022-10-07T05:02:44.670Z,61.22
2022-10-07T05:05:11.209Z,60.73
2022-10-07T05:07:37.683Z,60.83
2022-10-07T05:10:04.738Z,62.00
2022-10-07T05:12:31.202Z,61.19
2022-10-07T05:14:58.179Z,60.98
2022-10-07T05:17:25.674Z,61.00
2022-10-07T05:19:52.114Z,60.87
2022-10-07T05:22:18.617Z,61.76
2022-10-07T05:24:45.026Z,61.61
2022-10-07T05:27:13.886Z,61.64
2022-10-07T05:29:40.400Z,61.19
2022-10-07T05:32:06.924Z,61.85
2022-10-07T05:34:33.392Z,62.56
2022-10-07T05:36:59.777Z,62.48
2022-10-07T05:39:26.261Z,63.15
2022-10-07T05:41:52.783Z,61.99
2022-10-07T05:44:22.215Z,61.78
2022-10-07T05:46:49.221Z,61.61
2022-10-07T05:49:15.742Z,62.85
2022-10-07T05:51:42.498Z,62.08
2022-10-07T05:54:08.894Z,63.15
2022-10-07T05:56:37.112Z,64.34
2022-10-07T05:59:04.497Z,63.54
2022-10-07T06:01:31.027Z,64.04
2022-10-07T06:03:57.885Z,64.30
2022-10-07T06:06:25.500Z,64.83
2022-10-07T06:08:53.324Z,64.08
2022-10-07T06:11:38.940Z,65.56
2022-10-07T06:14:06.244Z,64.87
2022-10-07T06:16:32.775Z,64.94
2022-10-07T06:18:59.978Z,64.33
2022-10-07T06:21:27.862Z,64.33
2022-10-07T06:23:56.488Z,64.04
2022-10-07T06:26:23.583Z,63.14
2022-10-07T06:28:50.223Z,62.85
2022-10-07T06:31:22.323Z,62.64
2022-10-07T06:33:50.108Z,63.02
2022-10-07T06:36:17.424Z,62.44
2022-10-07T06:38:48.665Z,62.88
2022-10-07T06:41:18.742Z,63.19
2022-10-07T06:43:45.668Z,62.40
2022-10-07T06:46:16.044Z,61.87
2022-10-07T06:48:44.632Z,61.39
2022-10-07T06:51:14.650Z,61.26
2022-10-07T06:53:41.902Z,60.68
2022-10-07T06:56:10.059Z,60.11
2022-10-07T06:58:36.848Z,58.60
2022-10-07T07:01:04.013Z,57.74
2022-10-07T07:03:30.561Z,55.73
2022-10-07T07:05:57.388Z,54.96
2022-10-07T07:08:31.688Z,52.12
2022-10-07T07:11:29.410Z,49.34
2022-10-07T07:13:56.584Z,49.61
2022-10-07T07:16:24.309Z,48.64
2022-10-07T07:18:53.183Z,48.59
2022-10-07T07:21:19.874Z,47.79
2022-10-07T07:23:46.518Z,46.89
2022-10-07T07:26:13.506Z,46.80
2022-10-07T07:28:40.148Z,46.10
2022-10-07T07:31:11.182Z,47.08
2022-10-07T07:33:38.317Z,45.91
2022-10-07T07:36:16.461Z,45.74
2022-10-07T07:38:43.835Z,44.72
2022-10-07T07:41:10.966Z,44.72
2022-10-07T07:43:37.501Z,44.53
2022-10-07T07:46:04.911Z,43.09
2022-10-07T07:48:31.516Z,44.50
2022-10-07T07:50:58.069Z,42.28
2022-10-07T07:53:24.512Z,42.57
2022-10-07T07:55:55.958Z,41.83
2022-10-07T07:58:24.396Z,40.31
2022-10-07T08:01:01.819Z,39.63
2022-10-07T08:03:28.421Z,40.47
2022-10-07T08:05:55.041Z,40.29
2022-10-07T08:08:22.264Z,38.97
2022-10-07T08:10:51.876Z,39.17
2022-10-07T08:13:18.695Z,40.48
2022-10-07T08:15:45.352Z,38.58
2022-10-07T08:18:11.874Z,38.82
2022-10-07T08:20:38.443Z,37.51
2022-10-07T08:23:06.118Z,37.78
2022-10-07T08:25:32.765Z,36.66
2022-10-07T08:27:59.871Z,36.91
2022-10-07T08:30:26.550Z,36.29
2022-10-07T08:32:54.197Z,36.51
2022-10-07T08:35:22.215Z,36.40
2022-10-07T08:37:48.947Z,36.46
2022-10-07T08:40:17.492Z,36.17
2022-10-07T08:42:44.174Z,34.53
2022-10-07T08:45:22.407Z,33.63
2022-10-07T08:47:51.403Z,32.90
2022-10-07T08:50:24.542Z,32.64
2022-10-07T08:52:56.050Z,32.70
2022-10-07T08:56:00.889Z,32.05
2022-10-07T08:58:46.762Z,31.97
2022-10-07T09:01:39.633Z,31.84
2022-10-07T09:04:44.737Z,32.40
2022-10-07T09:07:20.054Z,32.76
2022-10-07T09:09:54.905Z,32.40
2022-10-07T09:12:29.245Z,32.09
2022-10-07T09:14:58.009Z,30.39
2022-10-07T09:17:36.407Z,29.66
2022-10-07T09:20:16.422Z,29.98
2022-10-07T09:22:50.199Z,30.29
2022-10-07T09:25:22.298Z,31.20
2022-10-07T09:27:51.379Z,30.97
2022-10-07T09:30:20.012Z,31.12
2022-10-07T09:32:49.345Z,30.33
2022-10-07T09:35:22.075Z,29.92
2022-10-07T09:38:03.228Z,29.46
2022-10-07T09:40:35.468Z,28.00
2022-10-07T09:43:13.796Z,27.87
2022-10-07T09:45:46.929Z,27.37
2022-10-07T09:48:23.916Z,27.62
2022-10-07T09:50:50.390Z,28.26
2022-10-07T09:53:29.104Z,28.45
2022-10-07T09:55:55.605Z,28.38
2022-10-07T09:58:30.486Z,29.11
2022-10-07T10:01:01.547Z,27.37
2022-10-07T10:03:37.242Z,26.60
2022-10-07T10:06:08.845Z,28.46
2022-10-07T10:08:42.590Z,28.41
2022-10-07T10:11:17.922Z,27.62
2022-10-07T10:13:44.450Z,27.71
2022-10-07T10:16:25.982Z,27.90
2022-10-07T10:19:02.379Z,28.12
2022-10-07T10:21:36.584Z,27.70
2022-10-07T10:24:06.400Z,28.38
2022-10-07T10:26:42.051Z,28.05
2022-10-07T10:29:40.976Z,29.07
2022-10-07T10:32:20.954Z,28.11
2022-10-07T10:35:02.472Z,27.74
2022-10-07T10:37:40.800Z,28.61
2022-10-07T10:40:19.307Z,28.66
2022-10-07T10:43:04.104Z,27.88
2022-10-07T10:45:39.775Z,29.02
2022-10-07T10:48:31.551Z,27.22
2022-10-07T10:51:05.944Z,27.76
2022-10-07T10:53:40.393Z,27.23
2022-10-07T10:56:48.025Z,28.04
2022-10-07T10:59:33.897Z,26.83
2022-10-07T11:02:38.805Z,27.16
2022-10-07T11:05:36.822Z,26.66
2022-10-07T11:08:15.399Z,26.72
2022-10-07T11:10:50.753Z,26.05
2022-10-07T11:13:33.888Z,27.06
2022-10-07T11:16:20.677Z,26.73
2022-10-07T11:18:55.580Z,26.73
2022-10-07T11:21:39.869Z,25.20
2022-10-07T11:24:11.364Z,24.99
2022-10-07T11:26:41.485Z,24.46
2022-10-07T11:29:32.579Z,24.01
2022-10-07T11:32:12.451Z,24.79
2022-10-07T11:34:56.673Z,23.95
2022-10-07T11:37:49.307Z,25.24
2022-10-07T11:40:16.545Z,25.16
2022-10-07T11:42:49.808Z,25.50
2022-10-07T11:45:22.272Z,24.32
2022-10-07T11:48:04.494Z,24.28
2022-10-07T11:50:36.817Z,22.74
2022-10-07T11:53:09.698Z,24.45
2022-10-07T11:55:45.462Z,23.34
2022-10-07T11:58:27.076Z,23.88
2022-10-07T12:01:25.391Z,24.47
2022-10-07T12:04:16.509Z,22.50
2022-10-07T12:07:20.393Z,23.86
2022-10-07T12:10:07.441Z,24.44
2022-10-07T12:12:43.898Z,24.61
2022-10-07T12:15:42.367Z,26.17
2022-10-07T12:18:10.441Z,27.53
2022-10-07T12:20:44.889Z,29.29
2022-10-07T12:23:17.283Z,30.32
2022-10-07T12:25:48.334Z,29.58
2022-10-07T12:28:41.770Z,29.84
2022-10-07T12:31:23.469Z,28.36
2022-10-07T12:33:55.984Z,26.93
2022-10-07T12:36:29.268Z,25.32
2022-10-07T12:38:57.614Z,23.61
2022-10-07T12:41:25.386Z,23.54
2022-10-07T12:44:30.324Z,23.05
2022-10-07T12:47:02.422Z,22.58
2022-10-07T12:49:39.701Z,24.94
2022-10-07T12:52:15.053Z,26.12
2022-10-07T12:54:48.871Z,30.11
2022-10-07T12:57:21.534Z,32.14
2022-10-07T13:00:14.011Z,32.42
2022-10-07T13:02:43.722Z,33.34
2022-10-07T13:05:29.253Z,33.04
2022-10-07T13:08:15.247Z,32.91
2022-10-07T13:11:08.830Z,34.62
2022-10-07T13:13:52.906Z,34.55
2022-10-07T13:16:31.890Z,34.91
2022-10-07T13:19:14.181Z,34.21
2022-10-07T13:21:49.314Z,34.64
2022-10-07T13:24:22.337Z,34.53
2022-10-07T13:26:49.182Z,34.95
2022-10-07T13:29:28.355Z,34.36
2022-10-07T13:32:13.908Z,33.61
2022-10-07T13:34:41.523Z,32.86
2022-10-07T13:37:34.196Z,33.38
2022-10-07T13:40:20.794Z,33.02
2022-10-07T13:42:55.422Z,33.14
2022-10-07T13:45:22.606Z,33.46
2022-10-07T13:47:49.962Z,32.92
2022-10-07T13:50:22.419Z,33.37
2022-10-07T13:52:50.460Z,32.86
2022-10-07T13:55:30.483Z,33.18
2022-10-07T13:58:00.713Z,33.33
2022-10-07T14:00:32.976Z,33.04
2022-10-07T14:03:01.686Z,33.04
2022-10-07T14:05:31.601Z,33.89
2022-10-07T14:08:00.688Z,33.54
2022-10-07T14:10:29.601Z,33.50
2022-10-07T14:13:09.691Z,34.43
2022-10-07T14:15:37.002Z,34.12
2022-10-07T14:18:11.169Z,34.18
2022-10-07T14:20:45.947Z,34.40
2022-10-07T14:23:33.790Z,34.73
2022-10-07T14:26:11.644Z,34.41
2022-10-07T14:28:39.884Z,34.79
2022-10-07T14:31:25.147Z,35.01
2022-10-07T14:34:34.580Z,34.69
2022-10-07T14:37:17.394Z,34.24
2022-10-07T14:39:48.926Z,34.57
2022-10-07T14:42:18.369Z,35.22
2022-10-07T14:44:45.726Z,34.90
2022-10-07T14:47:15.371Z,34.88
2022-10-07T14:49:44.675Z,34.88
2022-10-07T14:52:18.125Z,34.82
2022-10-07T14:54:44.769Z,34.95
2022-10-07T14:57:11.187Z,34.62
2022-10-07T14:59:37.878Z,34.52
2022-10-07T15:02:04.365Z,35.19
2022-10-07T15:04:30.942Z,35.27
2022-10-07T15:06:58.038Z,34.88
2022-10-07T15:09:24.652Z,35.14
2022-10-07T15:11:51.323Z,34.50
2022-10-07T15:14:17.857Z,34.80
2022-10-07T15:16:44.652Z,34.64
2022-10-07T15:19:11.187Z,35.00
2022-10-07T15:21:37.637Z,35.25
2022-10-07T15:24:04.166Z,35.34
2022-10-07T15:26:31.128Z,35.37
2022-10-07T15:28:59.246Z,35.79
2022-10-07T15:31:28.078Z,35.37
2022-10-07T15:33:57.811Z,35.48
2022-10-07T15:36:29.021Z,36.07
2022-10-07T15:38:58.789Z,36.37
2022-10-07T15:41:40.038Z,36.41
2022-10-07T15:44:12.933Z,36.11
2022-10-07T15:46:39.400Z,36.74
2022-10-07T15:49:05.983Z,36.35
2022-10-07T15:51:32.895Z,36.74
2022-10-07T15:53:59.667Z,36.47
2022-10-07T15:56:26.109Z,36.60
2022-10-07T15:58:53.320Z,36.04
2022-10-07T16:01:20.769Z,36.53
2022-10-07T16:03:49.002Z,36.77
2022-10-07T16:06:21.177Z,37.10
2022-10-07T16:08:49.487Z,36.98
2022-10-07T16:11:16.169Z,36.76
2022-10-07T16:13:44.989Z,37.09
2022-10-07T16:16:14.765Z,37.27
2022-10-07T16:18:43.906Z,36.82
2022-10-07T16:21:15.644Z,37.66
2022-10-07T16:23:47.418Z,37.86
2022-10-07T16:26:19.552Z,37.75
2022-10-07T16:29:06.472Z,38.19
2022-10-07T16:31:34.925Z,38.25
2022-10-07T16:34:03.300Z,38.13
2022-10-07T16:36:30.318Z,38.44
2022-10-07T16:38:59.777Z,39.07
2022-10-07T16:41:26.272Z,38.77
2022-10-07T16:43:52.707Z,39.10
2022-10-07T16:46:20.792Z,39.19
2022-10-07T16:48:49.056Z,39.46
2022-10-07T16:51:18.578Z,39.53
2022-10-07T16:53:46.998Z,39.54
2022-10-07T16:56:13.586Z,39.78
2022-10-07T16:58:40.381Z,40.03
2022-10-07T17:01:12.772Z,39.83
2022-10-07T17:03:41.197Z,39.96
2022-10-07T17:06:14.926Z,40.24
2022-10-07T17:08:47.487Z,40.06
2022-10-07T17:11:29.019Z,40.57
2022-10-07T17:13:58.182Z,40.66
2022-10-07T17:16:26.099Z,40.89
2022-10-07T17:18:53.387Z,40.99
2022-10-07T17:21:20.405Z,41.14
2022-10-07T17:23:47.746Z,40.90
2022-10-07T17:26:15.435Z,41.82
2022-10-07T17:28:42.742Z,41.58
2022-10-07T17:31:12.052Z,41.67
2022-10-07T17:33:45.270Z,41.77
2022-10-07T17:36:12.671Z,41.75
2022-10-07T17:38:43.802Z,42.03
2022-10-07T17:41:16.654Z,42.18
2022-10-07T17:43:43.428Z,42.40
2022-10-07T17:46:12.783Z,42.24
2022-10-07T17:48:54.522Z,42.67
2022-10-07T17:51:24.130Z,42.84
2022-10-07T17:53:51.108Z,42.96
2022-10-07T17:56:17.605Z,42.94
2022-10-07T17:58:45.762Z,42.93
2022-10-07T18:01:19.446Z,43.76
2022-10-07T18:03:51.204Z,43.62
2022-10-07T18:06:18.120Z,43.60
2022-10-07T18:08:44.743Z,43.53
2022-10-07T18:11:11.280Z,43.89
2022-10-07T18:13:56.242Z,44.16
2022-10-07T18:16:23.178Z,44.12
2022-10-07T18:18:57.138Z,44.29
2022-10-07T18:21:24.484Z,44.17
2022-10-07T18:23:52.553Z,44.68
2022-10-07T18:26:19.213Z,45.69
2022-10-07T18:28:49.449Z,45.88
2022-10-07T18:31:17.549Z,45.22
2022-10-07T18:33:45.991Z,46.10
2022-10-07T18:36:15.803Z,46.43
2022-10-07T18:38:44.364Z,46.09
2022-10-07T18:41:16.098Z,46.28
2022-10-07T18:43:43.465Z,46.38
2022-10-07T18:46:12.734Z,47.05
2022-10-07T18:48:50.623Z,46.64
2022-10-07T18:51:17.508Z,46.25
2022-10-07T18:53:47.137Z,46.84
2022-10-07T18:56:14.958Z,47.17
2022-10-07T18:58:44.492Z,47.11
2022-10-07T19:01:17.125Z,46.96
2022-10-07T19:03:44.530Z,47.54
2022-10-07T19:06:17.148Z,47.78
2022-10-07T19:08:43.594Z,47.62
2022-10-07T19:11:16.852Z,48.26
2022-10-07T19:13:48.144Z,48.44
2022-10-07T19:16:29.184Z,48.78
2022-10-07T19:18:59.215Z,49.10
2022-10-07T19:21:26.043Z,49.55
2022-10-07T19:24:01.630Z,49.54
2022-10-07T19:26:42.761Z,50.16
2022-10-07T19:29:10.721Z,49.93
2022-10-07T19:31:43.773Z,50.00
2022-10-07T19:34:13.352Z,50.07
2022-10-07T19:36:42.326Z,50.24
2022-10-07T19:39:10.406Z,50.62
2022-10-07T19:41:37.422Z,50.91
2022-10-07T19:44:05.022Z,50.78
2022-10-07T19:46:33.518Z,51.30
2022-10-07T19:49:02.020Z,51.53
2022-10-07T19:51:30.524Z,51.43
2022-10-07T19:53:58.076Z,51.66
2022-10-07T19:56:28.145Z,51.53
2022-10-07T19:58:56.969Z,51.37
2022-10-07T20:01:26.283Z,51.21
2022-10-07T20:03:57.966Z,51.15
2022-10-07T20:06:25.192Z,51.09
2022-10-07T20:08:52.352Z,51.21
2022-10-07T20:11:19.080Z,51.91
2022-10-07T20:13:45.718Z,51.48
2022-10-07T20:16:18.973Z,51.70
2022-10-07T20:18:48.103Z,51.99
2022-10-07T20:21:24.368Z,52.30
2022-10-07T20:23:53.798Z,53.08
2022-10-07T20:26:23.687Z,54.06
2022-10-07T20:28:52.832Z,53.75
2022-10-07T20:31:21.729Z,53.83
2022-10-07T20:33:50.946Z,54.32
2022-10-07T20:36:23.289Z,54.26
2022-10-07T20:39:23.506Z,53.76
2022-10-07T20:42:09.940Z,53.89
2022-10-07T20:44:36.680Z,53.53
2022-10-07T20:47:06.227Z,53.39
2022-10-07T20:49:33.634Z,53.84
2022-10-07T20:52:02.208Z,54.17
2022-10-07T20:54:30.164Z,54.26
2022-10-07T20:56:57.983Z,53.82
2022-10-07T20:59:28.835Z,54.08
2022-10-07T21:01:56.174Z,54.18
2022-10-07T21:04:25.129Z,54.99
2022-10-07T21:06:52.234Z,54.39
2022-10-07T21:09:20.018Z,54.55
2022-10-07T21:11:47.261Z,55.18
2022-10-07T21:14:14.479Z,54.88
2022-10-07T21:16:41.374Z,55.39
2022-10-07T21:19:08.073Z,54.99
2022-10-07T21:21:34.886Z,55.62
2022-10-07T21:24:01.376Z,55.42
2022-10-07T21:26:27.826Z,55.70
2022-10-07T21:28:54.354Z,55.76
2022-10-07T21:31:22.030Z,55.96
2022-10-07T21:33:50.460Z,55.74
2022-10-07T21:36:21.610Z,55.64
2022-10-07T21:38:54.289Z,56.03
2022-10-07T21:41:24.721Z,56.37
2022-10-07T21:43:53.495Z,57.19
2022-10-07T21:46:20.917Z,56.51
2022-10-07T21:48:47.742Z,56.77
2022-10-07T21:51:14.816Z,57.40
2022-10-07T21:53:41.432Z,58.13
2022-10-07T21:56:11.477Z,57.71
2022-10-07T21:58:38.102Z,57.16
